Adams Mills, Ohio
Current Conditions -  °F | °C
As of 1:53 AM on Sunday 26 Oct 2014 (Local Time) from KZZV Reporting Station
Clear Clear  
Wind Chill: 55°   Ceiling: Unl
Heat Index: 55°   Visibility: 10mi
Dew Point: 33°   Wind: 8mph
Humidity: 43%   Direction: 290°WNW
Pressure: 29.86"   Gusts: NA
Location:  40.1482°N, 82.0354°W
Report Text: KZZV 260553Z AUTO 29007KT 10SM CLR 13/01 A2986 RMK AO2 SLP108 T01280006 10178 20128 53001
Loading
Personal Weather Stations






























Interactive Weather Map New forecast layout! Learn more

10-Day Weather Forecast

Advertisements
Track Severe Weather on mobile